This is the latest recevied weather packets stored in our database for station/object KC9DRE. If no packets are shown the sender has not sent any weather packets the latest 10 day(s).
| Time | Temp. | Humidity | Pressure | Rain* | Wind** | Luminosity | Snow |
|---|---|---|---|---|---|---|---|
| 1787850940 | 28.89° C | 61% | 1016.2 hPa | 0 mm | - | 216 W/m² | - |
| 1787850636 | 28.89° C | 63% | 1016.5 hPa | 0 mm | - | 215 W/m² | - |
| 1787850331 | 28.33° C | 66% | 1016.6 hPa | 0 mm | - | 929 W/m² | - |
| 1787850027 | 28.33° C | 63% | 1016.5 hPa | 0 mm | - | 194 W/m² | - |
| 1787849725 | 28.89° C | 62% | 1016.6 hPa | 0 mm | - | 880 W/m² | - |
| 1787849421 | 29.44° C | 60% | 1016.5 hPa | 0 mm | - | 881 W/m² | - |
| 1787849119 | 28.89° C | 63% | 1016.5 hPa | 0 mm | - | 881 W/m² | - |
| 1787848814 | 28.33° C | 63% | 1016.5 hPa | 0 mm | - | 836 W/m² | - |
| 1787848514 | 28.33° C | 62% | 1016.4 hPa | 0 mm | - | 790 W/m² | - |
| 1787848208 | 28.89° C | 60% | 1016.5 hPa | 0 mm | - | 797 W/m² | - |
| 1787847903 | 28.89° C | 62% | 1016.7 hPa | 0 mm | - | 789 W/m² | - |
| 1787847603 | 28.89° C | 62% | 1016.7 hPa | 0 mm | - | 439 W/m² | - |
| 1787847298 | 28.89° C | 61% | 1016.8 hPa | 0 mm | - | 765 W/m² | - |
| 1787846995 | 28.33° C | 63% | 1016.7 hPa | 0 mm | - | 744 W/m² | - |
| 1787846694 | 28.33° C | 60% | 1016.7 hPa | 0 mm | - | 735 W/m² | - |
| 1787846389 | 27.78° C | 70% | 1016.7 hPa | 0 mm | - | 719 W/m² | - |
| 1787846085 | 27.22° C | 67% | 1016.7 hPa | 0 mm | - | 705 W/m² | - |
| 1787845781 | 27.78° C | 68% | 1016.6 hPa | 0 mm | - | 694 W/m² | - |
| 1787845476 | 27.22° C | 69% | 1016.6 hPa | 0 mm | - | 687 W/m² | - |
| 1787845173 | 26.67° C | 73% | 1016.6 hPa | 0 mm | - | 671 W/m² | - |
| 1787844873 | 26.67° C | 72% | 1016.7 hPa | 0 mm | - | 659 W/m² | - |
| 1787844572 | 26.67° C | 73% | 1016.7 hPa | 0 mm | - | 643 W/m² | - |
| 1787844267 | 26.67° C | 76% | 1016.8 hPa | 0 mm | - | 630 W/m² | - |
| 1787843966 | 27.22° C | 73% | 1016.7 hPa | 0 mm | - | 614 W/m² | - |
| 1787843661 | 27.22° C | 73% | 1016.6 hPa | 0 mm | - | 600 W/m² | - |
* Rain latest hour (hover to see other rain measurements)
** Current wind speed in m/s (hover to see current wind gust speed)